createdAt,value
2019-02-17T00:01:22.147Z,43.40
2019-02-17T00:06:25.786Z,43.44
2019-02-17T00:11:29.261Z,43.45
2019-02-17T00:16:32.738Z,43.47
2019-02-17T00:21:36.214Z,43.49
2019-02-17T00:26:39.693Z,43.53
2019-02-17T00:31:43.166Z,43.53
2019-02-17T00:36:46.645Z,43.52
2019-02-17T00:41:50.190Z,43.50
2019-02-17T00:46:53.671Z,43.53
2019-02-17T00:51:57.147Z,43.57
2019-02-17T00:57:00.627Z,43.63
2019-02-17T01:02:04.109Z,43.63
2019-02-17T01:07:07.592Z,43.63
2019-02-17T01:12:11.076Z,43.68
2019-02-17T01:17:14.551Z,43.68
2019-02-17T01:22:18.027Z,43.70
2019-02-17T01:27:21.569Z,43.68
2019-02-17T01:32:24.990Z,43.64
2019-02-17T01:37:28.471Z,43.67
2019-02-17T01:42:31.951Z,43.68
2019-02-17T01:47:35.422Z,43.73
2019-02-17T01:52:38.898Z,43.73
2019-02-17T01:57:42.376Z,43.76
2019-02-17T02:02:45.855Z,43.78
2019-02-17T02:07:49.336Z,43.80
2019-02-17T02:12:52.881Z,43.82
2019-02-17T02:17:56.371Z,43.85
2019-02-17T02:22:59.850Z,43.84
2019-02-17T02:28:03.321Z,43.86
2019-02-17T02:33:06.799Z,43.86
2019-02-17T02:38:10.274Z,43.85
2019-02-17T02:43:13.755Z,43.83
2019-02-17T02:48:17.225Z,43.79
2019-02-17T02:53:20.707Z,43.79
2019-02-17T02:58:24.193Z,43.77
2019-02-17T03:03:27.659Z,43.79
2019-02-17T03:08:31.141Z,43.78
2019-02-17T03:13:34.638Z,43.79
2019-02-17T03:18:38.098Z,43.84
2019-02-17T03:23:41.574Z,43.86
2019-02-17T03:28:45.059Z,43.83
2019-02-17T03:33:48.551Z,43.86
2019-02-17T03:38:52.012Z,43.86
2019-02-17T03:43:55.483Z,43.89
2019-02-17T03:48:58.954Z,43.88
2019-02-17T03:54:02.431Z,43.91
2019-02-17T03:59:05.906Z,43.93
2019-02-17T04:04:09.389Z,43.95
2019-02-17T04:09:12.865Z,43.96
2019-02-17T04:14:16.343Z,43.99
2019-02-17T04:19:19.820Z,44.03
2019-02-17T04:24:23.307Z,44.01
2019-02-17T04:29:26.781Z,44.04
2019-02-17T04:34:30.263Z,44.03
2019-02-17T04:39:33.734Z,44.03
2019-02-17T04:44:37.211Z,44.02
2019-02-17T04:49:40.687Z,43.97
2019-02-17T04:54:44.173Z,43.99
2019-02-17T04:59:47.651Z,43.96
2019-02-17T05:04:51.128Z,44.00
2019-02-17T05:09:54.594Z,44.00
2019-02-17T05:14:58.072Z,43.98
2019-02-17T05:20:01.548Z,44.01
2019-02-17T05:25:06.912Z,44.03
2019-02-17T05:30:11.538Z,44.05
2019-02-17T05:35:15.021Z,44.09
2019-02-17T05:40:18.488Z,44.10
2019-02-17T05:45:21.974Z,44.09
2019-02-17T05:50:25.442Z,44.09
2019-02-17T05:55:28.918Z,44.08
2019-02-17T06:00:32.943Z,44.07
2019-02-17T06:05:36.422Z,44.03
2019-02-17T06:10:39.900Z,44.07
2019-02-17T06:15:43.375Z,44.01
2019-02-17T06:20:46.852Z,44.07
2019-02-17T06:25:50.328Z,44.01
2019-02-17T06:30:53.803Z,44.01
2019-02-17T06:35:57.280Z,44.03
2019-02-17T06:41:00.756Z,44.03
2019-02-17T06:46:04.302Z,44.03
2019-02-17T06:51:07.779Z,44.04
2019-02-17T06:56:21.717Z,44.06
2019-02-17T07:01:25.239Z,44.07
2019-02-17T07:06:39.386Z,44.09
2019-02-17T07:11:42.835Z,44.22
2019-02-17T07:16:46.315Z,44.22
2019-02-17T07:21:49.790Z,44.12
2019-02-17T07:26:53.266Z,44.09
2019-02-17T07:31:56.743Z,44.01
2019-02-17T07:37:00.217Z,43.92
2019-02-17T07:42:03.699Z,43.88
2019-02-17T07:47:07.179Z,43.86
2019-02-17T07:52:10.661Z,43.84
2019-02-17T07:57:14.184Z,31.71
2019-02-17T08:02:17.679Z,28.42
2019-02-17T08:07:21.155Z,28.94
2019-02-17T08:12:24.656Z,31.10
2019-02-17T08:17:28.179Z,33.35
2019-02-17T08:22:31.663Z,34.41
2019-02-17T08:27:35.131Z,35.53
2019-02-17T08:32:38.611Z,35.99
2019-02-17T08:37:42.138Z,36.08
2019-02-17T08:42:45.641Z,36.38
2019-02-17T08:47:49.134Z,36.58
2019-02-17T08:52:52.636Z,36.78
2019-02-17T08:57:56.207Z,36.90
2019-02-17T09:02:59.690Z,37.03
2019-02-17T09:08:04.053Z,37.35
2019-02-17T09:13:07.556Z,37.68
2019-02-17T09:18:11.047Z,37.71
2019-02-17T09:23:14.545Z,37.69
2019-02-17T09:28:18.036Z,37.61
2019-02-17T09:33:21.605Z,37.61
2019-02-17T09:38:25.093Z,37.72
2019-02-17T09:43:28.590Z,37.62
2019-02-17T09:48:32.082Z,37.69
2019-02-17T09:53:35.577Z,37.62
2019-02-17T09:58:39.067Z,37.14
2019-02-17T10:03:42.563Z,37.53
2019-02-17T10:08:46.054Z,37.66
2019-02-17T10:13:49.543Z,37.60
2019-02-17T10:18:53.039Z,37.97
2019-02-17T10:23:56.597Z,38.14
2019-02-17T10:29:00.111Z,37.92
2019-02-17T10:34:03.610Z,37.79
2019-02-17T10:39:07.538Z,37.82
2019-02-17T10:44:11.032Z,37.93
2019-02-17T10:49:14.523Z,38.18
2019-02-17T10:54:18.017Z,38.36
2019-02-17T10:59:21.509Z,38.52
2019-02-17T11:04:25.001Z,38.68
2019-02-17T11:09:28.500Z,38.78
2019-02-17T11:14:31.989Z,38.87
2019-02-17T11:19:35.484Z,38.91
2019-02-17T11:24:38.974Z,38.98
2019-02-17T11:29:42.474Z,39.03
2019-02-17T11:34:45.963Z,39.05
2019-02-17T11:39:49.450Z,39.02
2019-02-17T11:44:52.943Z,39.48
2019-02-17T11:49:56.437Z,39.68
2019-02-17T11:54:59.941Z,39.85
2019-02-17T12:00:03.867Z,39.99
2019-02-17T12:05:09.302Z,40.17
2019-02-17T12:10:12.927Z,40.55
2019-02-17T12:15:16.430Z,40.45
2019-02-17T12:20:34.600Z,39.36
2019-02-17T12:25:42.717Z,38.92
2019-02-17T12:30:47.992Z,39.01
2019-02-17T12:35:51.510Z,39.42
2019-02-17T12:40:54.997Z,39.43
2019-02-17T12:45:58.489Z,39.50
2019-02-17T12:51:01.987Z,39.57
2019-02-17T12:56:05.477Z,39.59
2019-02-17T13:01:08.966Z,39.63
2019-02-17T13:06:12.459Z,39.65
2019-02-17T13:11:16.019Z,39.71
2019-02-17T13:16:19.514Z,39.77
2019-02-17T13:21:23.006Z,39.99
2019-02-17T13:26:26.498Z,39.99
2019-02-17T13:31:29.976Z,39.95
2019-02-17T13:36:33.445Z,39.99
2019-02-17T13:41:37.779Z,40.03
2019-02-17T13:46:41.254Z,40.09
2019-02-17T13:51:44.730Z,40.15
2019-02-17T13:56:48.208Z,40.19
2019-02-17T14:01:51.677Z,40.23
2019-02-17T14:06:55.153Z,40.25
2019-02-17T14:11:58.631Z,40.29
2019-02-17T14:17:02.110Z,40.34
2019-02-17T14:22:05.578Z,40.36
2019-02-17T14:27:09.054Z,40.39
2019-02-17T14:32:12.534Z,40.53
2019-02-17T14:37:16.010Z,40.64
2019-02-17T14:42:19.487Z,40.71
2019-02-17T14:47:22.964Z,40.72
2019-02-17T14:52:26.439Z,40.72
2019-02-17T14:57:29.914Z,40.70
2019-02-17T15:02:33.389Z,40.68
2019-02-17T15:07:36.866Z,40.69
2019-02-17T15:12:40.369Z,40.58
2019-02-17T15:17:43.845Z,40.69
2019-02-17T15:22:47.318Z,40.68
2019-02-17T15:27:50.793Z,40.69
2019-02-17T15:33:03.274Z,40.66
2019-02-17T15:37:59.480Z,40.65
2019-02-17T15:43:02.958Z,40.64
2019-02-17T15:48:06.440Z,40.62
2019-02-17T15:53:09.913Z,40.60
2019-02-17T15:58:13.391Z,40.55
2019-02-17T16:03:16.865Z,40.55
2019-02-17T16:08:20.360Z,40.52
2019-02-17T16:13:23.841Z,40.50
2019-02-17T16:18:28.077Z,40.44
2019-02-17T16:23:31.558Z,40.41
2019-02-17T16:28:35.029Z,40.38
2019-02-17T16:33:38.507Z,40.29
2019-02-17T16:38:41.981Z,40.22
2019-02-17T16:43:45.455Z,40.20
2019-02-17T16:48:48.936Z,40.12
2019-02-17T16:53:52.418Z,40.19
2019-02-17T16:58:55.898Z,40.47
2019-02-17T17:03:59.443Z,40.61
2019-02-17T17:09:03.096Z,40.74
2019-02-17T17:14:08.921Z,40.79
2019-02-17T17:19:11.782Z,40.83
2019-02-17T17:24:15.258Z,40.94
2019-02-17T17:29:18.738Z,41.01
2019-02-17T17:34:22.277Z,41.07
2019-02-17T17:39:25.701Z,41.14
2019-02-17T17:44:29.182Z,41.19
2019-02-17T17:49:32.668Z,41.23
2019-02-17T17:54:36.165Z,41.24
2019-02-17T17:59:39.650Z,41.32
2019-02-17T18:04:43.163Z,41.29
2019-02-17T18:09:46.653Z,41.32
2019-02-17T18:14:50.132Z,41.30
2019-02-17T18:19:53.617Z,41.33
2019-02-17T18:24:57.107Z,41.35
2019-02-17T18:30:00.595Z,41.35
2019-02-17T18:35:05.227Z,41.42
2019-02-17T18:40:11.563Z,41.43
2019-02-17T18:45:16.094Z,41.46
2019-02-17T18:50:19.856Z,41.46
2019-02-17T18:55:23.347Z,41.49
2019-02-17T19:00:27.410Z,41.45
2019-02-17T19:05:32.207Z,41.49
2019-02-17T19:10:35.982Z,41.55
2019-02-17T19:15:39.457Z,41.59
2019-02-17T19:20:42.951Z,41.70
2019-02-17T19:25:46.441Z,41.73
2019-02-17T19:30:49.933Z,41.82
2019-02-17T19:35:53.421Z,41.85
2019-02-17T19:40:56.916Z,41.93
2019-02-17T19:46:00.405Z,41.92
2019-02-17T19:51:03.904Z,41.76
2019-02-17T19:56:07.667Z,41.69
2019-02-17T20:01:11.264Z,41.77
2019-02-17T20:06:16.398Z,41.80
2019-02-17T20:11:19.892Z,41.88
2019-02-17T20:16:23.382Z,41.96
2019-02-17T20:21:26.874Z,42.01
2019-02-17T20:26:30.372Z,42.06
2019-02-17T20:31:33.866Z,42.09
2019-02-17T20:36:37.447Z,42.14
2019-02-17T20:41:40.931Z,42.14
2019-02-17T20:46:44.427Z,42.15
2019-02-17T20:51:47.918Z,42.17
2019-02-17T20:56:51.410Z,42.19
2019-02-17T21:01:54.898Z,42.18
2019-02-17T21:06:58.396Z,42.18
2019-02-17T21:12:01.890Z,42.25
2019-02-17T21:17:05.471Z,42.24
2019-02-17T21:22:08.947Z,42.31
2019-02-17T21:27:12.446Z,42.43
2019-02-17T21:32:15.938Z,42.54
2019-02-17T21:37:19.441Z,42.57
2019-02-17T21:42:22.918Z,42.62
2019-02-17T21:47:26.414Z,42.67
2019-02-17T21:52:29.903Z,42.71
2019-02-17T21:57:33.394Z,42.75
2019-02-17T22:02:36.895Z,42.78
2019-02-17T22:07:40.407Z,42.82
2019-02-17T22:12:43.872Z,42.84
2019-02-17T22:17:47.367Z,42.87
2019-02-17T22:22:50.860Z,42.88
2019-02-17T22:27:54.350Z,42.92
2019-02-17T22:32:57.845Z,42.92
2019-02-17T22:38:01.338Z,42.94
2019-02-17T22:43:04.813Z,42.96
2019-02-17T22:48:08.289Z,42.98
2019-02-17T22:53:12.037Z,42.99
2019-02-17T22:58:15.510Z,43.02
2019-02-17T23:03:18.997Z,43.02
2019-02-17T23:08:22.459Z,43.04
2019-02-17T23:13:25.940Z,43.04
2019-02-17T23:18:29.419Z,43.08
2019-02-17T23:23:32.904Z,43.10
2019-02-17T23:28:36.386Z,43.13
2019-02-17T23:33:39.864Z,43.14
2019-02-17T23:38:43.345Z,43.18
2019-02-17T23:43:46.827Z,43.19
2019-02-17T23:48:50.306Z,43.20
2019-02-17T23:53:53.789Z,43.21
2019-02-17T23:58:57.261Z,43.23
